• Join FlightAware (Why Join?)
  • Login
  • US Flag 
10:35PM EDT


 

Airport Tracker/Info


-or-


 

Live Flight TrackerFlight Track Log ✈ ASQ5745 ✈ 30-May-2013 ✈ KIAD - KALB

Flight Track Log - Related Links

Times and Time Zones

All times are in EDT time to prevent confusion due to time zone crossing. See the ASQ5745 flight status page for this flight to view local times or setup timezone preferences in your user account.

Time Position Orientation Groundspeed Altitude Reporting Facility
EDT Latitude Longitude Course Direction KTS MPH feet Rate Location/Type
09:02AM 38.9667 -77.5333 North 205 236 2,300  Level Potomac TRACON
09:03AM 39.0333 -77.5667 339° North 261 300 4,500 2,220 Climbing Potomac TRACON
09:05AM 39.2945 -77.4500 North  Level FlightAware Approximate
09:05AM 39.1578 -77.5725 358° North 286 329 8,300  Level Washington Center
09:06AM 39.3848 -77.4500 North  Level FlightAware Approximate
09:06AM 39.2389 -77.5719 360° North 286 329 10,600  Level Washington Center
09:07AM 39.4751 -77.4500 North  Level FlightAware Approximate
09:07AM 39.3289 -77.5475 12° North 300 345 11,600  Level Washington Center
09:08AM 39.4253 -77.5178 13° North 327 376 12,900 1,260 Climbing Washington Center
09:09AM 39.5278 -77.4883 12° North 351 404 14,200 1,320 Climbing Washington Center
09:10AM 39.6325 -77.4589 12° North 369 425 15,500 1,200 Climbing Washington Center
09:11AM 39.7072 -77.4528 North 375 432 16,300 1,140 Climbing New York Center
09:12AM 39.8033 -77.4511 North 381 438 17,500 960 Climbing New York Center
09:13AM 39.9200 -77.4514 360° North 386 444 18,300 780 Climbing New York Center
09:14AM 40.0225 -77.4503 360° North 394 453 19,100 780 Climbing New York Center
09:15AM 40.1331 -77.4475 North 394 453 20,000 900 Climbing New York Center
09:16AM 40.2306 -77.3833 27° Northeast 382 440 21,000 960 Climbing New York Center
09:17AM 40.3294 -77.2894 36° Northeast 388 447 22,000 900 Climbing New York Center
09:18AM 40.4292 -77.2222 27° Northeast 393 452 22,900 480 Climbing New York Center
09:19AM 40.5347 -77.1586 25° Northeast 403 464 23,000  Climbing New York Center
09:20AM 40.6425 -77.0947 24° Northeast 410 472 23,000  Level New York Center
09:21AM 40.7522 -77.0253 26° Northeast 422 486 23,000  Level New York Center
09:22AM 40.8664 -76.9561 25° Northeast 433 498 23,000  Level New York Center
09:23AM 40.9806 -76.8842 25° Northeast 444 511 23,000  Level New York Center
09:24AM 41.0925 -76.8169 24° Northeast 444 511 23,000  Level New York Center
09:25AM 41.2089 -76.7419 26° Northeast 444 511 23,000  Level New York Center
09:26AM 41.3247 -76.6719 24° Northeast 444 511 23,000  Level New York Center
09:27AM 41.4389 -76.5989 26° Northeast 450 518 23,000  Level New York Center
09:28AM 41.5419 -76.5358 25° Northeast 450 518 23,000  Level New York Center
09:29AM 41.6558 -76.4625 26° Northeast 450 518 23,000  Level New York Center
09:30AM 41.7717 -76.3889 25° Northeast 450 518 23,000  Level New York Center
09:31AM 41.8836 -76.3147 26° Northeast 450 518 23,000  Level New York Center
09:33AM 42.1483 -76.1397 26° Northeast 457 526 23,000  Level Boston Center
09:34AM 42.2000 -76.0192 60° Northeast 444 511 23,000  Level Boston Center
09:35AM 42.2686 -75.8267 64° Northeast 444 511 23,000  Level Boston Center
09:36AM 42.3192 -75.6611 68° East 457 526 23,000  Level Boston Center
09:37AM 42.3572 -75.4972 73° East 462 532 23,000  Level Boston Center
09:38AM 42.3992 -75.3278 71° East 462 532 23,000 -660 Level Boston Center
09:39AM 42.4386 -75.1606 72° East 462 532 21,700 -2,040 Descending Boston Center
09:40AM 42.4781 -74.9906 72° East 462 532 19,000 -2,640 Descending Boston Center
09:41AM 42.5128 -74.8372 73° East 449 517 16,500 -2,760 Descending Boston Center
09:42AM 42.5561 -74.6528 72° East 449 517 13,500 -2,640 Descending Boston Center
09:43AM 42.5897 -74.5158 72° East 442 509 11,300 -1,560 Descending Boston Center
09:44AM 42.6217 -74.3672 74° East 388 447 10,400 -1,200 Descending Boston Center
09:45AM 42.6525 -74.2667 67° East 335 386 8,900 -1,740 Descending Boston Center
09:46AM 42.7000 -74.1550 60° Northeast 300 345 7,000 -1,800 Descending Boston Center
09:47AM 42.7367 -74.0739 58° Northeast 287 330 5,300 -1,980 Descending Boston Center
09:48AM 42.7775 -73.9844 58° Northeast 282 325 3,100 -1,320 Descending Boston Center
09:49AM 42.8244 -73.8981 53° Northeast 265 305 2,700 -420 Descending Boston Center